sensor_id;sensor_type;location;lat;lon;timestamp;P1;durP1;ratioP1;P2;durP2;ratioP2
13493;SDS011;6819;50.886;4.332;2022-12-17T00:00:10;32.97;;;15.88;;
13493;SDS011;6819;50.886;4.332;2022-12-17T00:02:58;32.70;;;16.23;;
13493;SDS011;6819;50.886;4.332;2022-12-17T00:05:43;32.75;;;16.70;;
13493;SDS011;6819;50.886;4.332;2022-12-17T00:08:27;27.83;;;14.80;;
13493;SDS011;6819;50.886;4.332;2022-12-17T00:11:12;36.15;;;16.60;;
13493;SDS011;6819;50.886;4.332;2022-12-17T00:13:56;30.80;;;16.75;;
13493;SDS011;6819;50.886;4.332;2022-12-17T00:16:41;34.28;;;17.02;;
13493;SDS011;6819;50.886;4.332;2022-12-17T00:19:25;29.13;;;15.07;;
13493;SDS011;6819;50.886;4.332;2022-12-17T00:22:10;33.13;;;16.80;;
13493;SDS011;6819;50.886;4.332;2022-12-17T00:24:55;34.22;;;15.25;;
13493;SDS011;6819;50.886;4.332;2022-12-17T00:27:39;29.25;;;15.32;;
13493;SDS011;6819;50.886;4.332;2022-12-17T00:30:34;26.23;;;13.98;;
13493;SDS011;6819;50.886;4.332;2022-12-17T00:33:19;34.72;;;16.77;;
13493;SDS011;6819;50.886;4.332;2022-12-17T00:36:04;30.50;;;16.10;;
13493;SDS011;6819;50.886;4.332;2022-12-17T00:38:49;29.23;;;15.82;;
13493;SDS011;6819;50.886;4.332;2022-12-17T00:41:33;28.45;;;14.68;;
13493;SDS011;6819;50.886;4.332;2022-12-17T00:44:18;30.75;;;16.50;;
13493;SDS011;6819;50.886;4.332;2022-12-17T00:47:02;33.42;;;14.75;;
13493;SDS011;6819;50.886;4.332;2022-12-17T00:49:47;30.58;;;14.70;;
13493;SDS011;6819;50.886;4.332;2022-12-17T00:52:31;29.17;;;14.95;;
13493;SDS011;6819;50.886;4.332;2022-12-17T00:55:16;26.17;;;14.30;;
13493;SDS011;6819;50.886;4.332;2022-12-17T00:58:01;29.80;;;14.17;;
13493;SDS011;6819;50.886;4.332;2022-12-17T01:00:45;26.65;;;14.57;;
13493;SDS011;6819;50.886;4.332;2022-12-17T01:03:30;33.22;;;15.98;;
13493;SDS011;6819;50.886;4.332;2022-12-17T01:06:25;35.50;;;16.13;;
13493;SDS011;6819;50.886;4.332;2022-12-17T01:09:09;34.27;;;15.97;;
13493;SDS011;6819;50.886;4.332;2022-12-17T01:11:54;28.60;;;14.73;;
13493;SDS011;6819;50.886;4.332;2022-12-17T01:14:39;28.58;;;13.68;;
13493;SDS011;6819;50.886;4.332;2022-12-17T01:17:23;26.65;;;14.38;;
13493;SDS011;6819;50.886;4.332;2022-12-17T01:20:08;30.25;;;15.15;;
13493;SDS011;6819;50.886;4.332;2022-12-17T01:22:53;30.23;;;14.63;;
13493;SDS011;6819;50.886;4.332;2022-12-17T01:25:37;31.63;;;15.02;;
13493;SDS011;6819;50.886;4.332;2022-12-17T01:28:22;26.95;;;14.95;;
13493;SDS011;6819;50.886;4.332;2022-12-17T01:33:52;29.33;;;13.65;;
13493;SDS011;6819;50.886;4.332;2022-12-17T01:36:37;30.55;;;15.48;;
13493;SDS011;6819;50.886;4.332;2022-12-17T01:39:21;27.38;;;14.35;;
13493;SDS011;6819;50.886;4.332;2022-12-17T01:42:12;30.35;;;14.93;;
13493;SDS011;6819;50.886;4.332;2022-12-17T01:44:57;24.52;;;14.23;;
13493;SDS011;6819;50.886;4.332;2022-12-17T01:47:52;28.98;;;14.13;;
13493;SDS011;6819;50.886;4.332;2022-12-17T01:50:40;25.55;;;14.05;;
13493;SDS011;6819;50.886;4.332;2022-12-17T01:53:28;32.58;;;13.60;;
13493;SDS011;6819;50.886;4.332;2022-12-17T01:56:15;25.25;;;14.13;;
13493;SDS011;6819;50.886;4.332;2022-12-17T01:59:00;29.70;;;14.05;;
13493;SDS011;6819;50.886;4.332;2022-12-17T02:01:45;30.05;;;15.48;;
13493;SDS011;6819;50.886;4.332;2022-12-17T02:04:29;30.90;;;14.88;;
13493;SDS011;6819;50.886;4.332;2022-12-17T02:07:33;27.00;;;15.25;;
13493;SDS011;6819;50.886;4.332;2022-12-17T02:13:16;30.52;;;13.80;;
13493;SDS011;6819;50.886;4.332;2022-12-17T02:16:16;28.85;;;13.75;;
13493;SDS011;6819;50.886;4.332;2022-12-17T02:19:06;35.55;;;16.88;;
13493;SDS011;6819;50.886;4.332;2022-12-17T02:21:57;27.73;;;14.73;;
13493;SDS011;6819;50.886;4.332;2022-12-17T02:24:50;37.55;;;15.40;;
13493;SDS011;6819;50.886;4.332;2022-12-17T02:27:37;29.35;;;14.48;;
13493;SDS011;6819;50.886;4.332;2022-12-17T02:30:21;25.67;;;13.85;;
13493;SDS011;6819;50.886;4.332;2022-12-17T02:33:06;33.20;;;14.83;;
13493;SDS011;6819;50.886;4.332;2022-12-17T02:35:58;31.45;;;15.10;;
13493;SDS011;6819;50.886;4.332;2022-12-17T02:38:46;33.63;;;15.43;;
13493;SDS011;6819;50.886;4.332;2022-12-17T02:41:33;25.67;;;13.77;;
13493;SDS011;6819;50.886;4.332;2022-12-17T02:44:19;33.88;;;15.65;;
13493;SDS011;6819;50.886;4.332;2022-12-17T02:47:16;28.55;;;14.52;;
13493;SDS011;6819;50.886;4.332;2022-12-17T02:50:02;28.38;;;13.70;;
13493;SDS011;6819;50.886;4.332;2022-12-17T02:52:47;30.33;;;14.70;;
13493;SDS011;6819;50.886;4.332;2022-12-17T02:55:33;23.42;;;13.25;;
13493;SDS011;6819;50.886;4.332;2022-12-17T02:58:18;32.22;;;15.23;;
13493;SDS011;6819;50.886;4.332;2022-12-17T03:01:03;28.20;;;16.13;;
13493;SDS011;6819;50.886;4.332;2022-12-17T03:03:48;43.65;;;14.50;;
13493;SDS011;6819;50.886;4.332;2022-12-17T03:06:32;27.42;;;13.57;;
13493;SDS011;6819;50.886;4.332;2022-12-17T03:09:17;27.87;;;14.17;;
13493;SDS011;6819;50.886;4.332;2022-12-17T03:12:02;26.33;;;13.18;;
13493;SDS011;6819;50.886;4.332;2022-12-17T03:14:47;30.25;;;14.10;;
13493;SDS011;6819;50.886;4.332;2022-12-17T03:17:31;27.40;;;14.52;;
13493;SDS011;6819;50.886;4.332;2022-12-17T03:20:16;29.17;;;14.63;;
13493;SDS011;6819;50.886;4.332;2022-12-17T03:23:05;27.20;;;14.10;;
13493;SDS011;6819;50.886;4.332;2022-12-17T03:25:50;28.38;;;13.50;;
13493;SDS011;6819;50.886;4.332;2022-12-17T03:28:34;30.15;;;15.10;;
13493;SDS011;6819;50.886;4.332;2022-12-17T03:31:19;25.80;;;13.48;;
13493;SDS011;6819;50.886;4.332;2022-12-17T03:34:03;31.23;;;14.48;;
13493;SDS011;6819;50.886;4.332;2022-12-17T03:36:48;30.15;;;15.20;;
13493;SDS011;6819;50.886;4.332;2022-12-17T03:39:32;26.17;;;14.23;;
13493;SDS011;6819;50.886;4.332;2022-12-17T03:42:17;29.08;;;14.52;;
13493;SDS011;6819;50.886;4.332;2022-12-17T03:45:02;38.70;;;15.27;;
13493;SDS011;6819;50.886;4.332;2022-12-17T03:47:47;29.05;;;13.65;;
13493;SDS011;6819;50.886;4.332;2022-12-17T03:50:31;23.52;;;12.45;;
13493;SDS011;6819;50.886;4.332;2022-12-17T03:53:16;29.77;;;14.02;;
13493;SDS011;6819;50.886;4.332;2022-12-17T03:56:00;34.00;;;15.25;;
13493;SDS011;6819;50.886;4.332;2022-12-17T03:58:45;24.50;;;13.52;;
13493;SDS011;6819;50.886;4.332;2022-12-17T04:01:30;27.40;;;13.70;;
13493;SDS011;6819;50.886;4.332;2022-12-17T04:04:14;24.93;;;14.03;;
13493;SDS011;6819;50.886;4.332;2022-12-17T04:07:13;25.10;;;13.48;;
13493;SDS011;6819;50.886;4.332;2022-12-17T04:09:57;33.67;;;15.15;;
13493;SDS011;6819;50.886;4.332;2022-12-17T04:12:42;26.73;;;13.85;;
13493;SDS011;6819;50.886;4.332;2022-12-17T04:15:26;30.80;;;14.23;;
13493;SDS011;6819;50.886;4.332;2022-12-17T04:18:11;24.27;;;12.90;;
13493;SDS011;6819;50.886;4.332;2022-12-17T04:20:55;25.80;;;13.10;;
13493;SDS011;6819;50.886;4.332;2022-12-17T04:23:40;29.10;;;14.63;;
13493;SDS011;6819;50.886;4.332;2022-12-17T04:26:24;27.23;;;12.65;;
13493;SDS011;6819;50.886;4.332;2022-12-17T04:29:09;26.50;;;13.02;;
13493;SDS011;6819;50.886;4.332;2022-12-17T04:31:53;25.70;;;13.13;;
13493;SDS011;6819;50.886;4.332;2022-12-17T04:34:38;29.38;;;13.25;;
13493;SDS011;6819;50.886;4.332;2022-12-17T04:37:22;28.63;;;13.18;;
13493;SDS011;6819;50.886;4.332;2022-12-17T04:40:07;23.77;;;13.65;;
13493;SDS011;6819;50.886;4.332;2022-12-17T04:45:37;26.85;;;11.63;;
13493;SDS011;6819;50.886;4.332;2022-12-17T04:48:22;27.85;;;13.60;;
13493;SDS011;6819;50.886;4.332;2022-12-17T04:51:06;26.10;;;12.43;;
13493;SDS011;6819;50.886;4.332;2022-12-17T04:53:51;24.23;;;12.57;;
13493;SDS011;6819;50.886;4.332;2022-12-17T04:56:35;30.77;;;12.83;;
13493;SDS011;6819;50.886;4.332;2022-12-17T04:59:20;31.02;;;14.35;;
13493;SDS011;6819;50.886;4.332;2022-12-17T05:02:05;31.73;;;14.87;;
13493;SDS011;6819;50.886;4.332;2022-12-17T05:04:49;25.00;;;12.52;;
13493;SDS011;6819;50.886;4.332;2022-12-17T05:07:34;29.52;;;13.68;;
13493;SDS011;6819;50.886;4.332;2022-12-17T05:10:18;27.02;;;12.27;;
13493;SDS011;6819;50.886;4.332;2022-12-17T05:13:03;23.83;;;11.90;;
13493;SDS011;6819;50.886;4.332;2022-12-17T05:15:48;31.13;;;14.00;;
13493;SDS011;6819;50.886;4.332;2022-12-17T05:18:32;35.53;;;14.40;;
13493;SDS011;6819;50.886;4.332;2022-12-17T05:21:17;30.70;;;13.43;;
13493;SDS011;6819;50.886;4.332;2022-12-17T05:24:02;24.25;;;12.20;;
13493;SDS011;6819;50.886;4.332;2022-12-17T05:26:46;28.42;;;12.40;;
13493;SDS011;6819;50.886;4.332;2022-12-17T05:29:31;23.60;;;13.40;;
13493;SDS011;6819;50.886;4.332;2022-12-17T05:32:15;23.83;;;11.63;;
13493;SDS011;6819;50.886;4.332;2022-12-17T05:35:00;26.40;;;12.52;;
13493;SDS011;6819;50.886;4.332;2022-12-17T05:37:44;29.92;;;13.00;;
13493;SDS011;6819;50.886;4.332;2022-12-17T05:40:29;25.73;;;13.38;;
13493;SDS011;6819;50.886;4.332;2022-12-17T05:43:13;25.80;;;12.27;;
13493;SDS011;6819;50.886;4.332;2022-12-17T05:45:58;22.85;;;11.95;;
13493;SDS011;6819;50.886;4.332;2022-12-17T05:48:43;29.70;;;13.17;;
13493;SDS011;6819;50.886;4.332;2022-12-17T05:51:27;30.17;;;13.35;;
13493;SDS011;6819;50.886;4.332;2022-12-17T05:54:11;26.70;;;12.82;;
13493;SDS011;6819;50.886;4.332;2022-12-17T05:56:56;27.60;;;13.88;;
13493;SDS011;6819;50.886;4.332;2022-12-17T05:59:40;26.92;;;13.60;;
13493;SDS011;6819;50.886;4.332;2022-12-17T06:02:25;28.73;;;13.10;;
13493;SDS011;6819;50.886;4.332;2022-12-17T06:05:09;22.55;;;11.80;;
13493;SDS011;6819;50.886;4.332;2022-12-17T06:08:04;29.30;;;14.40;;
13493;SDS011;6819;50.886;4.332;2022-12-17T06:10:49;26.38;;;11.45;;
13493;SDS011;6819;50.886;4.332;2022-12-17T06:13:34;23.17;;;12.07;;
13493;SDS011;6819;50.886;4.332;2022-12-17T06:16:19;29.87;;;12.23;;
13493;SDS011;6819;50.886;4.332;2022-12-17T06:19:04;24.52;;;12.63;;
13493;SDS011;6819;50.886;4.332;2022-12-17T06:21:48;29.90;;;13.43;;
13493;SDS011;6819;50.886;4.332;2022-12-17T06:24:33;22.48;;;13.30;;
13493;SDS011;6819;50.886;4.332;2022-12-17T06:27:17;33.13;;;13.73;;
13493;SDS011;6819;50.886;4.332;2022-12-17T06:30:02;25.95;;;12.10;;
13493;SDS011;6819;50.886;4.332;2022-12-17T06:32:47;36.13;;;14.55;;
13493;SDS011;6819;50.886;4.332;2022-12-17T06:35:32;29.83;;;13.32;;
13493;SDS011;6819;50.886;4.332;2022-12-17T06:38:16;26.63;;;11.82;;
13493;SDS011;6819;50.886;4.332;2022-12-17T06:41:01;27.48;;;12.15;;
13493;SDS011;6819;50.886;4.332;2022-12-17T06:43:46;21.73;;;12.45;;
13493;SDS011;6819;50.886;4.332;2022-12-17T06:46:30;24.53;;;12.47;;
13493;SDS011;6819;50.886;4.332;2022-12-17T06:49:15;34.40;;;14.30;;
13493;SDS011;6819;50.886;4.332;2022-12-17T06:51:59;25.02;;;12.45;;
13493;SDS011;6819;50.886;4.332;2022-12-17T06:54:44;32.05;;;13.13;;
13493;SDS011;6819;50.886;4.332;2022-12-17T06:57:28;26.50;;;11.90;;
13493;SDS011;6819;50.886;4.332;2022-12-17T07:00:13;20.40;;;10.68;;
13493;SDS011;6819;50.886;4.332;2022-12-17T07:02:58;34.08;;;12.77;;
13493;SDS011;6819;50.886;4.332;2022-12-17T07:05:42;27.00;;;11.88;;
13493;SDS011;6819;50.886;4.332;2022-12-17T07:08:27;22.58;;;11.07;;
13493;SDS011;6819;50.886;4.332;2022-12-17T07:11:11;35.50;;;13.00;;
13493;SDS011;6819;50.886;4.332;2022-12-17T07:13:56;21.02;;;11.18;;
13493;SDS011;6819;50.886;4.332;2022-12-17T07:16:40;26.90;;;11.40;;
13493;SDS011;6819;50.886;4.332;2022-12-17T07:19:25;27.20;;;13.00;;
13493;SDS011;6819;50.886;4.332;2022-12-17T07:22:09;26.13;;;12.73;;
13493;SDS011;6819;50.886;4.332;2022-12-17T07:24:54;30.42;;;13.52;;
13493;SDS011;6819;50.886;4.332;2022-12-17T07:27:39;19.83;;;11.37;;
13493;SDS011;6819;50.886;4.332;2022-12-17T07:30:23;27.90;;;13.07;;
13493;SDS011;6819;50.886;4.332;2022-12-17T07:33:08;31.67;;;13.40;;
13493;SDS011;6819;50.886;4.332;2022-12-17T07:35:53;34.45;;;16.10;;
13493;SDS011;6819;50.886;4.332;2022-12-17T07:38:38;28.42;;;13.30;;
13493;SDS011;6819;50.886;4.332;2022-12-17T07:41:22;28.15;;;13.68;;
13493;SDS011;6819;50.886;4.332;2022-12-17T07:44:07;24.93;;;12.80;;
13493;SDS011;6819;50.886;4.332;2022-12-17T07:46:51;28.98;;;13.13;;
13493;SDS011;6819;50.886;4.332;2022-12-17T07:49:36;25.30;;;13.75;;
13493;SDS011;6819;50.886;4.332;2022-12-17T07:52:21;35.22;;;15.35;;
13493;SDS011;6819;50.886;4.332;2022-12-17T07:55:05;34.80;;;14.60;;
13493;SDS011;6819;50.886;4.332;2022-12-17T07:58:03;29.08;;;14.10;;
13493;SDS011;6819;50.886;4.332;2022-12-17T08:00:48;28.55;;;12.82;;
13493;SDS011;6819;50.886;4.332;2022-12-17T08:03:33;24.42;;;13.18;;
13493;SDS011;6819;50.886;4.332;2022-12-17T08:06:17;29.75;;;13.77;;
13493;SDS011;6819;50.886;4.332;2022-12-17T08:09:02;36.57;;;15.20;;
13493;SDS011;6819;50.886;4.332;2022-12-17T08:11:47;34.08;;;16.02;;
13493;SDS011;6819;50.886;4.332;2022-12-17T08:14:32;34.50;;;14.50;;
13493;SDS011;6819;50.886;4.332;2022-12-17T08:17:30;26.77;;;13.85;;
13493;SDS011;6819;50.886;4.332;2022-12-17T08:20:15;31.60;;;14.48;;
13493;SDS011;6819;50.886;4.332;2022-12-17T08:23:03;45.30;;;13.98;;
13493;SDS011;6819;50.886;4.332;2022-12-17T08:25:48;36.67;;;13.80;;
13493;SDS011;6819;50.886;4.332;2022-12-17T08:28:33;43.90;;;14.50;;
13493;SDS011;6819;50.886;4.332;2022-12-17T08:31:17;30.10;;;13.13;;
13493;SDS011;6819;50.886;4.332;2022-12-17T08:34:02;32.28;;;15.02;;
13493;SDS011;6819;50.886;4.332;2022-12-17T08:36:47;32.28;;;13.73;;
13493;SDS011;6819;50.886;4.332;2022-12-17T08:39:32;39.63;;;16.00;;
13493;SDS011;6819;50.886;4.332;2022-12-17T08:42:16;27.63;;;13.73;;
13493;SDS011;6819;50.886;4.332;2022-12-17T08:45:01;33.45;;;16.13;;
13493;SDS011;6819;50.886;4.332;2022-12-17T08:47:46;35.22;;;14.10;;
13493;SDS011;6819;50.886;4.332;2022-12-17T08:50:30;37.20;;;15.55;;
13493;SDS011;6819;50.886;4.332;2022-12-17T08:53:15;37.75;;;15.43;;
13493;SDS011;6819;50.886;4.332;2022-12-17T08:55:59;36.58;;;14.50;;
13493;SDS011;6819;50.886;4.332;2022-12-17T08:58:44;32.72;;;15.73;;
13493;SDS011;6819;50.886;4.332;2022-12-17T09:01:28;33.10;;;15.27;;
13493;SDS011;6819;50.886;4.332;2022-12-17T09:04:13;31.35;;;13.70;;
13493;SDS011;6819;50.886;4.332;2022-12-17T09:06:58;28.92;;;14.60;;
13493;SDS011;6819;50.886;4.332;2022-12-17T09:09:42;36.73;;;15.90;;
13493;SDS011;6819;50.886;4.332;2022-12-17T09:12:28;34.95;;;15.07;;
13493;SDS011;6819;50.886;4.332;2022-12-17T09:15:13;43.67;;;17.70;;
13493;SDS011;6819;50.886;4.332;2022-12-17T09:17:57;37.75;;;15.07;;
13493;SDS011;6819;50.886;4.332;2022-12-17T09:20:42;33.42;;;16.25;;
13493;SDS011;6819;50.886;4.332;2022-12-17T09:23:26;36.92;;;17.17;;
13493;SDS011;6819;50.886;4.332;2022-12-17T09:26:11;34.35;;;15.80;;
13493;SDS011;6819;50.886;4.332;2022-12-17T09:28:56;36.13;;;17.98;;
13493;SDS011;6819;50.886;4.332;2022-12-17T09:31:40;43.30;;;18.05;;
13493;SDS011;6819;50.886;4.332;2022-12-17T09:34:25;42.35;;;17.70;;
13493;SDS011;6819;50.886;4.332;2022-12-17T09:37:09;41.10;;;16.73;;
13493;SDS011;6819;50.886;4.332;2022-12-17T09:39:54;38.28;;;18.52;;
13493;SDS011;6819;50.886;4.332;2022-12-17T09:42:44;36.70;;;18.15;;
13493;SDS011;6819;50.886;4.332;2022-12-17T09:45:45;39.17;;;18.35;;
13493;SDS011;6819;50.886;4.332;2022-12-17T09:48:39;36.80;;;18.55;;
13493;SDS011;6819;50.886;4.332;2022-12-17T09:51:27;34.75;;;17.20;;
13493;SDS011;6819;50.886;4.332;2022-12-17T09:54:21;53.53;;;19.65;;
13493;SDS011;6819;50.886;4.332;2022-12-17T09:57:11;43.75;;;19.27;;
13493;SDS011;6819;50.886;4.332;2022-12-17T09:59:56;43.50;;;18.20;;
13493;SDS011;6819;50.886;4.332;2022-12-17T10:02:41;45.40;;;17.88;;
13493;SDS011;6819;50.886;4.332;2022-12-17T10:05:26;40.17;;;18.35;;
13493;SDS011;6819;50.886;4.332;2022-12-17T10:08:13;40.53;;;17.17;;
13493;SDS011;6819;50.886;4.332;2022-12-17T10:11:00;38.92;;;18.20;;
13493;SDS011;6819;50.886;4.332;2022-12-17T10:13:53;45.92;;;18.90;;
13493;SDS011;6819;50.886;4.332;2022-12-17T10:16:38;44.30;;;19.33;;
13493;SDS011;6819;50.886;4.332;2022-12-17T10:19:31;42.42;;;18.80;;
13493;SDS011;6819;50.886;4.332;2022-12-17T10:22:16;44.30;;;19.63;;
13493;SDS011;6819;50.886;4.332;2022-12-17T10:25:12;41.17;;;19.45;;
13493;SDS011;6819;50.886;4.332;2022-12-17T10:28:04;44.13;;;19.15;;
13493;SDS011;6819;50.886;4.332;2022-12-17T10:30:49;45.92;;;20.90;;
13493;SDS011;6819;50.886;4.332;2022-12-17T10:33:38;46.38;;;19.00;;
13493;SDS011;6819;50.886;4.332;2022-12-17T10:36:23;39.05;;;17.52;;
13493;SDS011;6819;50.886;4.332;2022-12-17T10:39:15;41.30;;;18.23;;
13493;SDS011;6819;50.886;4.332;2022-12-17T10:42:00;43.17;;;19.23;;
13493;SDS011;6819;50.886;4.332;2022-12-17T10:44:45;35.42;;;17.50;;
13493;SDS011;6819;50.886;4.332;2022-12-17T10:47:31;34.72;;;17.67;;
13493;SDS011;6819;50.886;4.332;2022-12-17T10:50:21;42.75;;;19.20;;
13493;SDS011;6819;50.886;4.332;2022-12-17T10:53:17;39.97;;;18.00;;
13493;SDS011;6819;50.886;4.332;2022-12-17T10:56:02;37.30;;;18.45;;
13493;SDS011;6819;50.886;4.332;2022-12-17T10:58:56;40.25;;;19.10;;
13493;SDS011;6819;50.886;4.332;2022-12-17T11:01:42;39.47;;;18.42;;
13493;SDS011;6819;50.886;4.332;2022-12-17T11:04:28;39.00;;;18.25;;
13493;SDS011;6819;50.886;4.332;2022-12-17T11:07:17;38.40;;;18.77;;
13493;SDS011;6819;50.886;4.332;2022-12-17T11:10:04;45.08;;;19.55;;
13493;SDS011;6819;50.886;4.332;2022-12-17T11:15:38;36.55;;;17.20;;
13493;SDS011;6819;50.886;4.332;2022-12-17T11:21:38;37.92;;;18.25;;
13493;SDS011;6819;50.886;4.332;2022-12-17T11:24:24;42.28;;;20.20;;
13493;SDS011;6819;50.886;4.332;2022-12-17T11:27:11;36.75;;;18.35;;
13493;SDS011;6819;50.886;4.332;2022-12-17T11:29:59;41.22;;;19.05;;
13493;SDS011;6819;50.886;4.332;2022-12-17T11:35:34;39.67;;;19.00;;
13493;SDS011;6819;50.886;4.332;2022-12-17T11:41:20;36.78;;;18.13;;
13493;SDS011;6819;50.886;4.332;2022-12-17T11:44:12;36.00;;;17.77;;
13493;SDS011;6819;50.886;4.332;2022-12-17T11:47:07;37.22;;;17.80;;
13493;SDS011;6819;50.886;4.332;2022-12-17T11:58:31;41.53;;;17.95;;
13493;SDS011;6819;50.886;4.332;2022-12-17T12:01:20;34.25;;;17.58;;
13493;SDS011;6819;50.886;4.332;2022-12-17T12:04:22;36.88;;;18.08;;
13493;SDS011;6819;50.886;4.332;2022-12-17T12:10:10;38.38;;;17.60;;
13493;SDS011;6819;50.886;4.332;2022-12-17T12:13:08;36.13;;;17.83;;
13493;SDS011;6819;50.886;4.332;2022-12-17T12:16:05;31.58;;;17.13;;
13493;SDS011;6819;50.886;4.332;2022-12-17T12:22:11;42.65;;;19.38;;
13493;SDS011;6819;50.886;4.332;2022-12-17T12:34:26;35.20;;;17.90;;
13493;SDS011;6819;50.886;4.332;2022-12-17T12:37:15;36.15;;;18.38;;
13493;SDS011;6819;50.886;4.332;2022-12-17T12:40:03;33.78;;;18.20;;
13493;SDS011;6819;50.886;4.332;2022-12-17T12:46:02;31.38;;;17.92;;
13493;SDS011;6819;50.886;4.332;2022-12-17T12:48:56;33.95;;;16.02;;
13493;SDS011;6819;50.886;4.332;2022-12-17T12:51:43;30.38;;;16.25;;
13493;SDS011;6819;50.886;4.332;2022-12-17T12:54:47;34.47;;;16.92;;
13493;SDS011;6819;50.886;4.332;2022-12-17T12:57:34;33.30;;;18.05;;
13493;SDS011;6819;50.886;4.332;2022-12-17T13:03:36;37.17;;;17.20;;
13493;SDS011;6819;50.886;4.332;2022-12-17T13:11:48;37.45;;;16.63;;
13493;SDS011;6819;50.886;4.332;2022-12-17T13:21:51;25.70;;;14.63;;
13493;SDS011;6819;50.886;4.332;2022-12-17T13:24:24;26.45;;;14.27;;
13493;SDS011;6819;50.886;4.332;2022-12-17T13:26:50;30.00;;;14.90;;
13493;SDS011;6819;50.886;4.332;2022-12-17T13:29:26;31.58;;;14.45;;
13493;SDS011;6819;50.886;4.332;2022-12-17T13:31:57;31.55;;;15.98;;
13493;SDS011;6819;50.886;4.332;2022-12-17T13:39:44;32.30;;;15.73;;
13493;SDS011;6819;50.886;4.332;2022-12-17T13:42:29;31.80;;;15.65;;
13493;SDS011;6819;50.886;4.332;2022-12-17T13:44:56;28.45;;;14.30;;
13493;SDS011;6819;50.886;4.332;2022-12-17T13:47:24;29.33;;;14.40;;
13493;SDS011;6819;50.886;4.332;2022-12-17T13:49:54;28.92;;;13.95;;
13493;SDS011;6819;50.886;4.332;2022-12-17T13:52:22;32.95;;;15.75;;
13493;SDS011;6819;50.886;4.332;2022-12-17T13:54:48;29.80;;;14.88;;
13493;SDS011;6819;50.886;4.332;2022-12-17T13:59:47;28.65;;;14.55;;
13493;SDS011;6819;50.886;4.332;2022-12-17T14:02:29;27.23;;;14.02;;
13493;SDS011;6819;50.886;4.332;2022-12-17T14:04:57;30.73;;;13.88;;
13493;SDS011;6819;50.886;4.332;2022-12-17T14:07:24;32.42;;;15.43;;
13493;SDS011;6819;50.886;4.332;2022-12-17T14:09:50;32.28;;;15.32;;
13493;SDS011;6819;50.886;4.332;2022-12-17T14:12:17;28.75;;;14.93;;
13493;SDS011;6819;50.886;4.332;2022-12-17T14:15:05;28.83;;;14.35;;
13493;SDS011;6819;50.886;4.332;2022-12-17T14:17:46;30.00;;;14.60;;
13493;SDS011;6819;50.886;4.332;2022-12-17T14:20:13;32.58;;;15.48;;
13493;SDS011;6819;50.886;4.332;2022-12-17T14:22:41;32.78;;;16.15;;
13493;SDS011;6819;50.886;4.332;2022-12-17T14:25:18;28.45;;;14.68;;
13493;SDS011;6819;50.886;4.332;2022-12-17T14:27:52;32.47;;;16.10;;
13493;SDS011;6819;50.886;4.332;2022-12-17T14:30:20;32.00;;;15.38;;
13493;SDS011;6819;50.886;4.332;2022-12-17T14:32:47;33.90;;;14.98;;
13493;SDS011;6819;50.886;4.332;2022-12-17T14:38:17;30.30;;;14.55;;
13493;SDS011;6819;50.886;4.332;2022-12-17T14:40:43;31.92;;;16.35;;
13493;SDS011;6819;50.886;4.332;2022-12-17T14:43:09;29.88;;;15.00;;
13493;SDS011;6819;50.886;4.332;2022-12-17T14:45:37;31.65;;;15.45;;
13493;SDS011;6819;50.886;4.332;2022-12-17T14:48:24;36.65;;;15.32;;
13493;SDS011;6819;50.886;4.332;2022-12-17T14:51:23;30.60;;;15.45;;
13493;SDS011;6819;50.886;4.332;2022-12-17T14:53:52;37.83;;;15.80;;
13493;SDS011;6819;50.886;4.332;2022-12-17T14:56:22;29.13;;;14.48;;
13493;SDS011;6819;50.886;4.332;2022-12-17T14:58:48;35.00;;;15.43;;
13493;SDS011;6819;50.886;4.332;2022-12-17T15:01:14;31.45;;;14.27;;
13493;SDS011;6819;50.886;4.332;2022-12-17T15:03:41;33.45;;;15.38;;
13493;SDS011;6819;50.886;4.332;2022-12-17T15:06:10;34.55;;;15.60;;
13493;SDS011;6819;50.886;4.332;2022-12-17T15:08:41;28.55;;;14.15;;
13493;SDS011;6819;50.886;4.332;2022-12-17T15:11:12;30.80;;;14.40;;
13493;SDS011;6819;50.886;4.332;2022-12-17T15:13:38;31.00;;;14.15;;
13493;SDS011;6819;50.886;4.332;2022-12-17T15:16:04;31.38;;;15.20;;
13493;SDS011;6819;50.886;4.332;2022-12-17T15:18:30;34.42;;;14.93;;
13493;SDS011;6819;50.886;4.332;2022-12-17T15:20:56;30.00;;;14.48;;
13493;SDS011;6819;50.886;4.332;2022-12-17T15:23:22;27.35;;;13.57;;
13493;SDS011;6819;50.886;4.332;2022-12-17T15:25:49;29.33;;;14.48;;
13493;SDS011;6819;50.886;4.332;2022-12-17T15:28:16;39.55;;;15.13;;
13493;SDS011;6819;50.886;4.332;2022-12-17T15:30:43;33.47;;;15.40;;
13493;SDS011;6819;50.886;4.332;2022-12-17T15:33:09;32.25;;;14.65;;
13493;SDS011;6819;50.886;4.332;2022-12-17T15:35:36;33.95;;;14.68;;
13493;SDS011;6819;50.886;4.332;2022-12-17T15:38:02;27.63;;;14.10;;
13493;SDS011;6819;50.886;4.332;2022-12-17T15:40:29;37.53;;;16.60;;
13493;SDS011;6819;50.886;4.332;2022-12-17T15:42:55;34.03;;;14.35;;
13493;SDS011;6819;50.886;4.332;2022-12-17T15:45:43;33.42;;;14.40;;
13493;SDS011;6819;50.886;4.332;2022-12-17T15:48:10;30.88;;;13.95;;
13493;SDS011;6819;50.886;4.332;2022-12-17T15:50:36;38.88;;;17.45;;
13493;SDS011;6819;50.886;4.332;2022-12-17T15:53:02;40.88;;;16.73;;
13493;SDS011;6819;50.886;4.332;2022-12-17T15:55:28;36.75;;;17.25;;
13493;SDS011;6819;50.886;4.332;2022-12-17T15:57:55;44.20;;;19.90;;
13493;SDS011;6819;50.886;4.332;2022-12-17T16:00:21;45.00;;;19.73;;
13493;SDS011;6819;50.886;4.332;2022-12-17T16:02:48;45.55;;;19.75;;
13493;SDS011;6819;50.886;4.332;2022-12-17T16:05:14;49.33;;;18.58;;
13493;SDS011;6819;50.886;4.332;2022-12-17T16:07:40;42.65;;;19.23;;
13493;SDS011;6819;50.886;4.332;2022-12-17T16:10:07;43.72;;;18.88;;
13493;SDS011;6819;50.886;4.332;2022-12-17T16:12:34;41.08;;;19.17;;
13493;SDS011;6819;50.886;4.332;2022-12-17T16:15:00;48.85;;;19.48;;
13493;SDS011;6819;50.886;4.332;2022-12-17T16:17:26;41.00;;;18.88;;
13493;SDS011;6819;50.886;4.332;2022-12-17T16:19:52;44.33;;;19.33;;
13493;SDS011;6819;50.886;4.332;2022-12-17T16:22:19;47.25;;;20.13;;
13493;SDS011;6819;50.886;4.332;2022-12-17T16:24:45;50.47;;;20.10;;
13493;SDS011;6819;50.886;4.332;2022-12-17T16:27:11;52.85;;;20.48;;
13493;SDS011;6819;50.886;4.332;2022-12-17T16:29:37;45.05;;;19.33;;
13493;SDS011;6819;50.886;4.332;2022-12-17T16:32:03;39.20;;;18.33;;
13493;SDS011;6819;50.886;4.332;2022-12-17T16:34:30;49.20;;;20.45;;
13493;SDS011;6819;50.886;4.332;2022-12-17T16:36:56;45.35;;;19.05;;
13493;SDS011;6819;50.886;4.332;2022-12-17T16:39:22;48.15;;;20.52;;
13493;SDS011;6819;50.886;4.332;2022-12-17T16:41:48;45.83;;;19.40;;
13493;SDS011;6819;50.886;4.332;2022-12-17T16:44:14;44.63;;;18.52;;
13493;SDS011;6819;50.886;4.332;2022-12-17T16:46:40;42.83;;;18.58;;
13493;SDS011;6819;50.886;4.332;2022-12-17T16:49:08;40.83;;;19.55;;
13493;SDS011;6819;50.886;4.332;2022-12-17T16:51:34;42.70;;;18.38;;
13493;SDS011;6819;50.886;4.332;2022-12-17T16:54:04;48.78;;;22.08;;
13493;SDS011;6819;50.886;4.332;2022-12-17T16:56:31;51.85;;;21.70;;
13493;SDS011;6819;50.886;4.332;2022-12-17T16:58:57;52.35;;;22.05;;
13493;SDS011;6819;50.886;4.332;2022-12-17T17:01:24;49.08;;;19.13;;
13493;SDS011;6819;50.886;4.332;2022-12-17T17:03:51;48.33;;;21.10;;
13493;SDS011;6819;50.886;4.332;2022-12-17T17:06:17;45.40;;;20.70;;
13493;SDS011;6819;50.886;4.332;2022-12-17T17:08:43;47.15;;;19.10;;
13493;SDS011;6819;50.886;4.332;2022-12-17T17:11:16;58.17;;;22.17;;
13493;SDS011;6819;50.886;4.332;2022-12-17T17:13:46;47.53;;;21.17;;